Time;durP1;ratioP1;P1;durP2;ratioP2;P2;SDS_P1;SDS_P2;PMS_P1;PMS_P2;Temp;Humidity;BMP_temperature;BMP_pressure;BME280_temperature;BME280_humidity;BME280_pressure;Samples;Min_cycle;Max_cycle;Signal;HPM_P1;HPM_P2
2023/04/10 00:01:08;;;;;;;6.70;5.90;;;10.80;76.20;;;;;;5013093;28;20244;-77
2023/04/10 00:03:33;;;;;;;7.93;6.27;;;10.80;76.80;;;;;;5011557;28;20178;-77
2023/04/10 00:05:59;;;;;;;7.60;6.20;;;10.80;77.00;;;;;;5012286;28;20551;-77
2023/04/10 00:08:25;;;;;;;7.00;6.20;;;10.80;77.30;;;;;;5013450;28;20569;-77
2023/04/10 00:10:53;;;;;;;7.37;5.93;;;10.80;78.00;;;;;;4994930;28;21233;-77
2023/04/10 00:13:19;;;;;;;7.28;6.57;;;10.80;78.90;;;;;;4995558;28;20166;-77
2023/04/10 00:15:45;;;;;;;8.48;7.00;;;10.70;79.40;;;;;;5011492;28;20174;-77
2023/04/10 00:18:11;;;;;;;7.20;6.47;;;10.70;80.80;;;;;;5011823;28;20182;-76
2023/04/10 00:20:37;;;;;;;6.43;5.63;;;10.70;80.30;;;;;;5001375;28;20781;-77
2023/04/10 00:23:03;;;;;;;6.70;6.10;;;10.70;80.90;;;;;;4991994;28;20642;-77
2023/04/10 00:25:29;;;;;;;6.60;5.90;;;10.70;80.40;;;;;;4992160;28;20202;-76
2023/04/10 00:27:54;;;;;;;6.70;5.80;;;10.60;81.30;;;;;;4993017;28;20928;-77
2023/04/10 00:30:20;;;;;;;7.83;6.87;;;10.60;81.80;;;;;;4975653;28;20213;-77
2023/04/10 00:32:46;;;;;;;7.53;6.03;;;10.60;82.80;;;;;;4992625;28;20175;-77
2023/04/10 00:35:13;;;;;;;7.43;6.70;;;10.60;83.10;;;;;;4992010;28;20669;-77
2023/04/10 00:37:39;;;;;;;8.13;7.28;;;10.50;82.90;;;;;;4991568;28;20186;-77
2023/04/10 00:40:06;;;;;;;8.48;6.82;;;10.50;84.20;;;;;;4992050;28;20198;-77
2023/04/10 00:42:32;;;;;;;7.30;6.05;;;10.50;84.50;;;;;;4991315;28;20263;-77
2023/04/10 00:44:58;;;;;;;7.30;6.60;;;10.50;85.90;;;;;;4991809;28;20720;-77
2023/04/10 00:47:25;;;;;;;8.20;6.80;;;10.50;85.20;;;;;;4991959;28;20617;-77
2023/04/10 00:49:51;;;;;;;7.60;6.00;;;10.50;85.70;;;;;;5007119;28;20305;-77
2023/04/10 00:52:16;;;;;;;6.50;5.83;;;10.50;85.20;;;;;;5012705;28;20192;-77
2023/04/10 00:54:42;;;;;;;6.10;5.40;;;10.50;85.20;;;;;;5025162;28;21219;-77
2023/04/10 00:57:08;;;;;;;6.63;5.80;;;10.50;85.90;;;;;;5011123;28;20668;-76
2023/04/10 00:59:35;;;;;;;9.03;7.27;;;10.40;86.10;;;;;;5011987;28;20273;-76
2023/04/10 01:02:01;;;;;;;6.60;5.35;;;10.40;87.80;;;;;;4999423;28;20517;-77
2023/04/10 01:16:32;;;;;;;7.95;6.78;;;10.30;89.40;;;;;;5006929;28;20222;-77
2023/04/10 01:19:45;;;;;;;7.97;7.18;;;10.30;90.00;;;;;;4991339;28;20178;-76
2023/04/10 01:22:15;;;;;;;9.38;8.13;;;10.30;89.30;;;;;;4979973;28;20178;-77
2023/04/10 01:25:26;;;;;;;6.43;5.80;;;10.20;90.60;;;;;;4974535;28;20170;-76
2023/04/10 01:28:05;;;;;;;8.30;6.38;;;10.20;92.40;;;;;;4970071;28;20604;-77
2023/04/10 01:30:34;;;;;;;7.95;7.15;;;10.20;90.70;;;;;;4974516;28;20210;-77
2023/04/10 01:33:01;;;;;;;6.63;6.03;;;10.20;91.50;;;;;;4974754;28;20167;-76
2023/04/10 01:35:30;;;;;;;7.45;6.32;;;10.20;90.70;;;;;;4991002;28;20174;-77
2023/04/10 01:38:00;;;;;;;7.50;6.55;;;10.20;91.20;;;;;;4991073;28;20270;-77
2023/04/10 01:40:28;;;;;;;7.03;6.25;;;10.20;90.80;;;;;;4990371;28;20202;-77
2023/04/10 01:42:55;;;;;;;5.85;5.25;;;10.10;91.20;;;;;;4974535;28;20183;-77
2023/04/10 01:45:28;;;;;;;8.15;6.80;;;10.10;91.30;;;;;;4989918;28;20262;-77
2023/04/10 01:47:55;;;;;;;10.65;7.97;;;10.10;91.30;;;;;;4974195;28;20177;-77
2023/04/10 01:50:24;;;;;;;9.43;7.63;;;10.10;92.00;;;;;;4974311;28;20204;-76
2023/04/10 01:52:51;;;;;;;8.35;7.03;;;10.00;92.50;;;;;;5007276;28;20206;-77
2023/04/10 01:55:21;;;;;;;7.07;6.38;;;10.00;92.80;;;;;;4990031;28;20290;-76
2023/04/10 01:57:54;;;;;;;7.97;5.85;;;10.00;92.10;;;;;;4974375;28;20175;-76
2023/04/10 02:00:21;;;;;;;7.60;6.78;;;10.00;92.20;;;;;;5006762;28;20249;-76
2023/04/10 02:02:47;;;;;;;8.10;6.20;;;10.00;92.70;;;;;;4973621;28;20179;-76
2023/04/10 02:05:15;;;;;;;8.33;6.53;;;10.00;92.60;;;;;;4990132;28;20619;-77
2023/04/10 02:08:04;;;;;;;8.10;6.35;;;9.90;93.90;;;;;;4973862;28;20584;-76
2023/04/10 02:10:43;;;;;;;9.30;7.07;;;9.90;93.60;;;;;;4990207;28;20217;-76
2023/04/10 02:13:13;;;;;;;6.82;6.13;;;9.90;93.60;;;;;;5006181;28;20182;-76
2023/04/10 02:15:42;;;;;;;7.03;6.13;;;9.90;93.40;;;;;;4973974;28;20175;-76
2023/04/10 02:18:09;;;;;;;6.75;5.43;;;9.90;94.00;;;;;;4989844;28;20585;-76
2023/04/10 02:20:36;;;;;;;7.47;6.20;;;9.90;93.80;;;;;;4986950;28;20207;-76
2023/04/10 02:23:04;;;;;;;7.63;6.75;;;9.90;94.00;;;;;;4989961;28;20171;-76
2023/04/10 02:25:34;;;;;;;7.20;6.40;;;9.90;94.20;;;;;;5005410;28;20206;-76
2023/04/10 02:28:07;;;;;;;7.43;6.35;;;9.90;93.90;;;;;;4973773;28;20709;-76
2023/04/10 02:30:33;;;;;;;8.18;7.38;;;9.80;94.30;;;;;;4989356;28;20272;-76
2023/04/10 02:32:59;;;;;;;7.93;6.25;;;9.80;94.10;;;;;;4990137;28;20526;-76
2023/04/10 02:35:28;;;;;;;6.53;5.82;;;9.80;94.10;;;;;;4973291;28;20229;-75
2023/04/10 02:37:54;;;;;;;6.50;5.30;;;9.80;94.10;;;;;;5006557;28;20181;-76
2023/04/10 02:40:20;;;;;;;6.72;6.03;;;9.80;94.00;;;;;;4989614;28;20199;-76
2023/04/10 02:42:54;;;;;;;7.75;6.78;;;9.80;94.40;;;;;;4990046;28;20174;-76
2023/04/10 02:45:20;;;;;;;6.10;5.38;;;9.80;94.30;;;;;;4989374;28;20215;-76
2023/04/10 02:47:46;;;;;;;7.93;5.50;;;9.80;94.40;;;;;;4989256;28;20175;-76
2023/04/10 02:50:11;;;;;;;7.70;6.50;;;9.80;94.70;;;;;;4989875;28;20249;-76
2023/04/10 02:52:40;;;;;;;7.18;5.97;;;9.70;95.00;;;;;;4957497;28;20686;-76
2023/04/10 02:55:06;;;;;;;6.40;5.53;;;9.70;94.70;;;;;;4989751;28;20225;-77
2023/04/10 02:57:35;;;;;;;7.20;6.30;;;9.70;94.70;;;;;;4957722;28;20175;-77
2023/04/10 03:00:03;;;;;;;7.27;6.20;;;9.70;94.60;;;;;;4973609;28;20195;-77
2023/04/10 03:02:45;;;;;;;7.22;6.40;;;9.70;94.50;;;;;;4989608;28;20882;-77
2023/04/10 03:05:15;;;;;;;6.03;5.40;;;9.70;94.70;;;;;;4989474;28;20252;-77
2023/04/10 03:07:41;;;;;;;7.10;6.40;;;9.60;94.60;;;;;;4990206;28;20200;-80
2023/04/10 03:10:08;;;;;;;7.45;6.25;;;9.60;94.70;;;;;;4989726;28;20223;-80
2023/04/10 03:12:33;;;;;;;6.05;5.45;;;9.60;95.00;;;;;;4989872;28;20187;-80
2023/04/10 03:14:59;;;;;;;7.53;6.10;;;9.60;95.50;;;;;;4973268;28;20237;-80
2023/04/10 03:17:25;;;;;;;8.10;6.03;;;9.60;95.20;;;;;;4990987;28;20183;-80
2023/04/10 03:19:51;;;;;;;6.80;5.80;;;9.50;95.10;;;;;;4989575;28;20218;-80
2023/04/10 03:22:16;;;;;;;6.40;5.63;;;9.50;95.20;;;;;;4998448;28;20175;-80
2023/04/10 03:24:43;;;;;;;8.00;7.30;;;9.50;95.40;;;;;;4990151;28;20179;-80
2023/04/10 03:27:09;;;;;;;7.10;6.40;;;9.50;95.20;;;;;;4976618;28;20242;-80
2023/04/10 03:29:34;;;;;;;6.53;5.60;;;9.50;95.40;;;;;;4961554;28;20625;-80
2023/04/10 03:32:00;;;;;;;7.13;5.47;;;9.50;95.50;;;;;;5009342;28;20531;-80
2023/04/10 03:34:26;;;;;;;5.40;4.55;;;9.50;95.50;;;;;;4977272;28;20653;-80
2023/04/10 03:36:52;;;;;;;6.50;5.77;;;9.50;95.60;;;;;;5008913;28;20265;-80
2023/04/10 03:39:18;;;;;;;4.57;4.10;;;9.50;95.40;;;;;;5009556;28;20627;-80
2023/04/10 03:41:44;;;;;;;8.67;6.23;;;9.50;95.50;;;;;;4994211;28;20544;-79
2023/04/10 03:44:09;;;;;;;10.10;6.88;;;9.50;96.10;;;;;;4976570;28;20179;-80
2023/04/10 03:46:35;;;;;;;6.80;5.80;;;9.40;96.20;;;;;;4992988;28;20203;-79
2023/04/10 03:49:01;;;;;;;7.93;6.20;;;9.40;96.40;;;;;;4992903;28;20666;-80
2023/04/10 03:51:30;;;;;;;7.10;6.05;;;9.40;97.10;;;;;;4976804;28;20178;-80
2023/04/10 03:53:56;;;;;;;6.32;5.15;;;9.40;96.70;;;;;;4992789;28;20238;-80
2023/04/10 03:56:22;;;;;;;8.10;6.57;;;9.30;96.70;;;;;;4976667;28;20638;-80
2023/04/10 03:58:48;;;;;;;7.57;5.77;;;9.30;96.80;;;;;;4976596;28;20202;-80
2023/04/10 04:01:13;;;;;;;8.07;7.27;;;9.30;96.80;;;;;;4976552;28;20290;-80
2023/04/10 04:03:58;;;;;;;6.50;5.20;;;9.30;97.00;;;;;;5009674;28;20721;-80
2023/04/10 04:06:42;;;;;;;5.90;5.20;;;9.30;97.50;;;;;;5008880;28;20218;-80
2023/04/10 04:09:33;;;;;;;7.40;6.65;;;9.30;97.40;;;;;;4979906;28;20202;-80
2023/04/10 04:12:17;;;;;;;7.53;6.65;;;9.20;97.70;;;;;;4993727;28;20654;-79
2023/04/10 04:15:06;;;;;;;7.68;6.50;;;9.20;97.40;;;;;;4992294;28;20167;-80
2023/04/10 04:17:56;;;;;;;6.30;5.68;;;9.20;98.20;;;;;;4995386;28;20521;-80
2023/04/10 04:20:36;;;;;;;7.82;5.85;;;9.10;97.70;;;;;;5008857;28;20253;-81
2023/04/10 04:23:12;;;;;;;7.90;5.57;;;9.10;97.90;;;;;;5005037;28;20179;-80
2023/04/10 04:25:55;;;;;;;7.05;5.90;;;9.10;97.60;;;;;;4956515;28;20207;-79
2023/04/10 04:28:40;;;;;;;7.03;5.70;;;9.10;98.20;;;;;;4973716;28;20190;-80
2023/04/10 04:31:19;;;;;;;7.00;5.50;;;9.00;97.80;;;;;;4988963;28;20577;-80
2023/04/10 04:34:08;;;;;;;9.63;7.18;;;9.00;98.30;;;;;;4988861;28;20176;-80
2023/04/10 04:37:01;;;;;;;9.15;6.97;;;9.00;98.60;;;;;;5007049;28;20258;-80
2023/04/10 04:39:44;;;;;;;7.57;6.28;;;9.00;98.80;;;;;;4991910;28;20217;-80
2023/04/10 04:42:22;;;;;;;6.45;5.78;;;8.90;98.90;;;;;;4992445;28;20195;-80
2023/04/10 04:45:09;;;;;;;7.40;5.65;;;8.90;98.40;;;;;;4991721;28;20210;-80
2023/04/10 04:47:54;;;;;;;7.25;6.55;;;8.90;98.60;;;;;;5008722;28;20306;-80
2023/04/10 04:50:40;;;;;;;7.60;6.85;;;8.90;98.90;;;;;;4971911;28;20209;-80
2023/04/10 04:53:18;;;;;;;7.95;6.35;;;8.90;99.30;;;;;;4975984;28;20329;-80
2023/04/10 04:56:06;;;;;;;6.20;5.60;;;8.90;99.00;;;;;;4991416;28;20257;-80
2023/04/10 04:58:54;;;;;;;6.35;5.65;;;8.90;99.10;;;;;;4986457;28;20244;-80
2023/04/10 05:01:32;;;;;;;5.95;5.28;;;8.90;99.30;;;;;;4975366;28;20202;-80
2023/04/10 05:04:21;;;;;;;8.20;5.47;;;8.90;99.30;;;;;;4980061;28;20286;-80
2023/04/10 05:06:55;;;;;;;6.70;6.00;;;8.90;99.30;;;;;;4974785;28;20212;-80
2023/04/10 05:09:34;;;;;;;6.65;5.82;;;8.90;99.30;;;;;;5007845;28;20553;-79
2023/04/10 05:12:09;;;;;;;7.50;6.28;;;8.90;99.50;;;;;;4990852;28;20174;-80
2023/04/10 05:14:47;;;;;;;7.57;6.30;;;9.00;99.80;;;;;;4991228;28;20553;-79
2023/04/10 05:17:39;;;;;;;5.35;4.85;;;9.00;99.90;;;;;;4974745;28;20168;-79
2023/04/10 05:20:16;;;;;;;6.75;5.63;;;9.00;99.80;;;;;;4991048;28;20202;-79
2023/04/10 05:23:15;;;;;;;7.88;5.57;;;9.10;99.80;;;;;;4991922;28;20191;-79
2023/04/10 05:26:13;;;;;;;8.40;6.10;;;9.10;99.90;;;;;;4978298;28;20582;-80
2023/04/10 05:29:14;;;;;;;6.63;5.45;;;9.20;99.90;;;;;;4995052;28;20213;-80
2023/04/10 05:32:07;;;;;;;7.65;6.80;;;9.20;99.80;;;;;;5012004;28;20262;-79
2023/04/10 05:34:58;;;;;;;8.43;6.80;;;9.30;99.80;;;;;;4965419;28;20278;-80
2023/04/10 05:37:46;;;;;;;8.02;5.65;;;9.40;99.90;;;;;;4995771;28;20545;-80
2023/04/10 05:40:24;;;;;;;7.43;6.60;;;9.40;99.90;;;;;;4991492;28;20202;-80
2023/04/10 05:43:27;;;;;;;7.38;6.03;;;9.50;99.90;;;;;;4991343;28;20240;-80
2023/04/10 05:46:00;;;;;;;6.40;5.75;;;9.50;99.90;;;;;;4959069;28;20269;-81
2023/04/10 05:48:50;;;;;;;7.18;5.88;;;9.60;99.90;;;;;;4972579;28;20608;-80
2023/04/10 05:51:21;;;;;;;7.90;6.15;;;9.70;99.90;;;;;;4990271;28;20206;-81
2023/04/10 05:54:16;;;;;;;7.75;6.28;;;9.90;99.90;;;;;;4990887;28;20182;-81
2023/04/10 05:57:00;;;;;;;7.38;6.10;;;10.00;99.60;;;;;;5006996;28;20536;-81
2023/04/10 05:59:44;;;;;;;10.23;7.47;;;10.00;99.40;;;;;;4992094;28;20275;-80
2023/04/10 06:02:28;;;;;;;7.78;6.82;;;10.10;99.40;;;;;;4991191;28;20179;-80
2023/04/10 06:04:54;;;;;;;9.07;7.80;;;10.10;99.30;;;;;;4991999;28;20171;-80
2023/04/10 06:07:20;;;;;;;8.23;6.32;;;10.20;99.20;;;;;;4992850;28;20642;-80
2023/04/10 06:09:46;;;;;;;8.73;7.75;;;10.20;99.10;;;;;;4990743;28;20225;-80
2023/04/10 06:12:11;;;;;;;10.00;6.33;;;10.30;99.10;;;;;;4991153;28;20171;-80
2023/04/10 06:14:39;;;;;;;7.28;6.22;;;10.30;99.00;;;;;;4974407;28;20671;-80
2023/04/10 06:17:05;;;;;;;9.57;8.57;;;10.40;99.00;;;;;;4974294;28;20252;-79
2023/04/10 06:19:31;;;;;;;9.60;7.88;;;10.40;98.80;;;;;;5006983;28;20230;-80
2023/04/10 06:21:56;;;;;;;7.80;7.00;;;10.50;98.90;;;;;;4991852;28;20754;-80
2023/04/10 06:24:22;;;;;;;8.40;6.90;;;10.60;99.00;;;;;;4992297;28;20182;-80
2023/04/10 06:26:48;;;;;;;9.50;8.27;;;10.70;99.00;;;;;;4991730;28;20211;-79
2023/04/10 06:29:14;;;;;;;6.23;5.63;;;10.80;98.80;;;;;;4990698;28;20198;-80
2023/04/10 06:31:40;;;;;;;7.00;6.10;;;10.90;98.90;;;;;;4990786;28;21194;-80
2023/04/10 06:34:06;;;;;;;8.30;6.85;;;11.00;98.90;;;;;;4974901;28;20258;-80
2023/04/10 06:36:35;;;;;;;8.50;6.15;;;11.10;98.30;;;;;;4989968;28;20178;-80
2023/04/10 06:39:05;;;;;;;7.95;7.15;;;11.20;98.50;;;;;;4975237;28;20201;-80
2023/04/10 06:41:31;;;;;;;7.50;6.65;;;11.60;98.70;;;;;;4991276;28;20237;-80
2023/04/10 06:44:06;;;;;;;8.60;7.70;;;12.00;98.60;;;;;;4991667;28;20547;-79
2023/04/10 06:46:31;;;;;;;7.80;6.03;;;12.50;98.30;;;;;;4992254;28;20199;-80
2023/04/10 06:48:57;;;;;;;6.57;5.93;;;13.10;99.10;;;;;;4976557;28;20699;-80
2023/04/10 06:51:23;;;;;;;7.80;6.90;;;13.70;99.00;;;;;;4976221;28;20197;-79
2023/04/10 06:53:48;;;;;;;7.10;6.37;;;14.40;98.60;;;;;;4993990;28;20167;-79
2023/04/10 06:56:14;;;;;;;7.50;6.27;;;14.90;95.80;;;;;;4993516;28;20579;-79
2023/04/10 06:58:40;;;;;;;10.30;6.10;;;15.40;95.90;;;;;;4975847;28;20193;-79
2023/04/10 07:01:06;;;;;;;7.90;6.60;;;15.80;93.10;;;;;;4994167;28;20675;-80
2023/04/10 07:03:32;;;;;;;6.70;4.83;;;16.30;92.30;;;;;;4996645;28;20179;-79
2023/04/10 07:05:58;;;;;;;5.60;5.10;;;16.70;91.80;;;;;;4980695;28;20823;-80
2023/04/10 07:08:24;;;;;;;5.97;5.40;;;17.30;91.90;;;;;;5002691;28;21349;-80
2023/04/10 07:10:50;;;;;;;7.73;6.67;;;17.60;90.80;;;;;;4994579;28;20617;-80
2023/04/10 07:13:16;;;;;;;8.00;7.20;;;17.90;87.00;;;;;;4997676;28;20942;-80
2023/04/10 07:15:42;;;;;;;6.87;6.17;;;18.10;81.00;;;;;;4979343;28;20593;-80
2023/04/10 07:18:07;;;;;;;6.20;5.60;;;18.30;85.70;;;;;;4994756;28;20515;-80
2023/04/10 07:20:33;;;;;;;6.17;5.57;;;18.50;84.80;;;;;;4994663;28;20298;-80
2023/04/10 07:22:59;;;;;;;5.60;5.10;;;18.60;79.60;;;;;;5018729;28;20558;-81
2023/04/10 07:25:25;;;;;;;5.33;4.83;;;18.60;77.30;;;;;;5012951;28;20209;-80
2023/04/10 07:27:50;;;;;;;6.50;5.57;;;18.70;78.90;;;;;;5014296;28;20657;-81
2023/04/10 07:30:18;;;;;;;5.40;4.90;;;18.60;75.90;;;;;;5010037;28;20644;-80
2023/04/10 07:32:44;;;;;;;5.77;5.17;;;18.60;76.00;;;;;;4987282;28;20173;-80
2023/04/10 07:35:10;;;;;;;6.17;5.57;;;18.80;77.70;;;;;;4993674;28;20586;-80
2023/04/10 07:37:36;;;;;;;6.73;5.70;;;19.00;75.50;;;;;;4993548;28;20720;-80
2023/04/10 07:40:02;;;;;;;6.83;6.13;;;19.00;72.10;;;;;;4996046;28;20599;-80
2023/04/10 07:42:27;;;;;;;8.00;6.10;;;18.70;68.90;;;;;;4997717;28;20179;-81
2023/04/10 07:44:53;;;;;;;5.40;4.90;;;18.30;67.30;;;;;;4980099;28;20642;-80
2023/04/10 07:47:19;;;;;;;5.20;4.70;;;17.90;67.60;;;;;;4980968;28;20218;-80
2023/04/10 07:49:45;;;;;;;5.80;5.07;;;17.60;67.90;;;;;;4994689;28;20241;-80
2023/04/10 07:52:10;;;;;;;5.80;5.20;;;17.40;68.10;;;;;;4993456;28;20171;-81
2023/04/10 07:54:36;;;;;;;7.07;5.33;;;17.40;70.20;;;;;;4976690;28;20574;-80
2023/04/10 07:57:02;;;;;;;5.83;5.23;;;17.30;70.20;;;;;;4994545;28;20597;-81
2023/04/10 07:59:28;;;;;;;5.77;5.17;;;17.20;68.90;;;;;;4984968;28;20423;-80
2023/04/10 08:01:54;;;;;;;5.50;4.93;;;17.20;68.50;;;;;;4994622;28;20187;-81
2023/04/10 08:04:20;;;;;;;5.80;4.93;;;17.30;70.30;;;;;;4977270;28;20190;-81
2023/04/10 08:06:45;;;;;;;5.60;4.93;;;17.40;69.00;;;;;;4992588;28;20653;-81
2023/04/10 08:09:11;;;;;;;6.13;5.53;;;17.60;70.50;;;;;;4993112;28;20180;-81
2023/04/10 08:11:37;;;;;;;4.60;4.07;;;17.80;68.90;;;;;;4993813;28;20170;-80
2023/04/10 08:14:04;;;;;;;5.67;5.17;;;17.80;67.20;;;;;;4993399;28;20178;-80
2023/04/10 08:16:32;;;;;;;6.10;5.50;;;17.90;66.90;;;;;;4992851;28;20190;-80
2023/04/10 08:18:59;;;;;;;7.90;5.13;;;18.00;64.10;;;;;;4994052;28;20665;-80
2023/04/10 08:21:27;;;;;;;5.77;5.17;;;18.20;66.50;;;;;;5009084;28;20624;-80
2023/04/10 08:23:54;;;;;;;5.53;5.00;;;18.30;65.50;;;;;;4993878;28;20594;-80
2023/04/10 08:26:20;;;;;;;4.53;3.90;;;18.50;65.10;;;;;;4961015;28;20665;-81
2023/04/10 08:28:51;;;;;;;4.77;4.20;;;18.60;64.40;;;;;;4961517;28;20582;-79
2023/04/10 08:31:17;;;;;;;4.60;4.20;;;18.70;61.30;;;;;;4998979;28;20729;-81
2023/04/10 08:33:43;;;;;;;4.53;4.13;;;18.70;62.30;;;;;;4992749;28;20954;-79
2023/04/10 08:36:10;;;;;;;4.37;3.97;;;18.50;59.80;;;;;;4993478;28;20603;-81
2023/04/10 08:38:35;;;;;;;4.10;3.70;;;18.40;61.20;;;;;;4995697;28;20182;-80
2023/04/10 08:41:01;;;;;;;4.03;3.63;;;18.30;61.60;;;;;;4993446;28;20626;-80
2023/04/10 08:43:27;;;;;;;5.40;4.20;;;18.30;61.30;;;;;;4994230;28;20296;-80
2023/04/10 08:45:53;;;;;;;4.57;4.17;;;18.30;60.80;;;;;;4993297;28;20194;-82
2023/04/10 08:48:20;;;;;;;4.00;3.57;;;18.20;59.70;;;;;;5009067;28;20598;-80
2023/04/10 08:50:46;;;;;;;5.43;4.00;;;18.30;61.40;;;;;;4992130;28;20298;-79
2023/04/10 08:53:13;;;;;;;5.10;4.30;;;18.40;59.70;;;;;;4976697;28;20939;-79
2023/04/10 08:55:40;;;;;;;4.40;2.97;;;18.40;59.60;;;;;;4997324;28;20973;-79
2023/04/10 08:58:07;;;;;;;4.70;3.90;;;18.50;59.30;;;;;;5004905;28;20610;-79
2023/04/10 09:00:34;;;;;;;3.93;3.50;;;18.60;58.20;;;;;;4974424;28;20977;-79
2023/04/10 09:03:03;;;;;;;4.33;3.90;;;18.70;58.10;;;;;;4973852;28;21070;-79
2023/04/10 09:05:29;;;;;;;4.60;4.10;;;18.60;58.30;;;;;;4956995;28;20575;-79
2023/04/10 09:07:55;;;;;;;4.40;3.80;;;18.60;58.00;;;;;;4973806;28;20618;-79
2023/04/10 09:10:22;;;;;;;4.97;4.47;;;18.60;58.20;;;;;;4972683;28;20713;-79
2023/04/10 09:12:48;;;;;;;4.23;3.83;;;18.60;57.60;;;;;;4973485;28;20175;-79
2023/04/10 09:15:14;;;;;;;4.30;3.90;;;18.20;55.00;;;;;;4972534;28;20663;-79
2023/04/10 09:18:01;;;;;;;4.83;4.33;;;18.40;56.70;;;;;;4972881;28;21135;-78
2023/04/10 09:20:31;;;;;;;3.77;3.43;;;18.40;57.10;;;;;;4984286;28;20783;-79
2023/04/10 09:22:57;;;;;;;4.50;3.37;;;18.60;57.90;;;;;;4990724;28;20617;-79
2023/04/10 09:25:31;;;;;;;3.33;2.97;;;18.50;57.00;;;;;;4974893;28;20664;-78
2023/04/10 09:28:02;;;;;;;3.70;3.23;;;18.50;57.40;;;;;;4991903;28;20593;-78
2023/04/10 09:30:39;;;;;;;3.43;2.80;;;18.50;56.50;;;;;;4990956;28;20724;-77
2023/04/10 09:33:31;;;;;;;4.17;3.60;;;18.60;57.00;;;;;;4991494;28;20601;-77
2023/04/10 09:36:02;;;;;;;3.80;3.40;;;18.80;58.30;;;;;;4987151;28;20598;-79
2023/04/10 09:38:29;;;;;;;2.63;2.20;;;19.10;59.00;;;;;;4991601;28;20597;-78
2023/04/10 09:41:06;;;;;;;4.27;3.87;;;19.20;58.20;;;;;;4991105;28;20708;-77
2023/04/10 09:43:32;;;;;;;3.57;3.27;;;19.20;57.30;;;;;;5007746;28;21164;-78
2023/04/10 09:45:58;;;;;;;4.37;3.40;;;19.10;56.90;;;;;;5007330;28;20637;-78
2023/04/10 09:48:25;;;;;;;3.93;3.30;;;19.30;57.70;;;;;;5007188;28;20211;-78
2023/04/10 09:50:51;;;;;;;3.20;2.90;;;19.40;57.60;;;;;;4991998;28;20694;-77
2023/04/10 09:53:19;;;;;;;3.10;2.80;;;19.50;57.00;;;;;;4991551;28;20586;-78
2023/04/10 09:55:47;;;;;;;3.63;3.33;;;19.60;57.70;;;;;;4990808;28;20689;-78
2023/04/10 09:58:13;;;;;;;3.43;3.13;;;19.80;58.40;;;;;;4990442;28;20582;-79
2023/04/10 10:00:47;;;;;;;3.97;3.30;;;19.90;57.70;;;;;;4990599;28;20621;-79
2023/04/10 10:03:15;;;;;;;4.57;4.00;;;20.00;55.60;;;;;;4991637;28;20590;-78
2023/04/10 10:05:44;;;;;;;3.80;3.43;;;19.90;54.20;;;;;;4974148;28;20638;-78
2023/04/10 10:08:11;;;;;;;3.80;2.60;;;19.90;55.90;;;;;;4992900;28;20608;-79
2023/04/10 10:10:44;;;;;;;3.43;2.70;;;20.10;57.00;;;;;;4974301;28;20625;-79
2023/04/10 10:13:11;;;;;;;4.00;3.60;;;20.50;57.40;;;;;;4991776;28;20589;-79
2023/04/10 10:16:07;;;;;;;3.40;3.10;;;20.90;56.30;;;;;;4991177;28;20573;-78
2023/04/10 10:18:52;;;;;;;3.80;3.23;;;21.20;53.90;;;;;;4990864;28;20621;-79
2023/04/10 10:21:19;;;;;;;3.17;2.70;;;21.30;54.00;;;;;;4989395;28;20676;-79
2023/04/10 10:23:52;;;;;;;3.27;2.70;;;21.40;55.70;;;;;;4974163;28;20598;-79
2023/04/10 10:26:18;;;;;;;2.93;2.63;;;21.50;55.10;;;;;;4990982;28;20649;-78
2023/04/10 10:28:46;;;;;;;3.53;2.60;;;21.60;55.00;;;;;;4990382;28;20594;-78
2023/04/10 10:31:12;;;;;;;2.63;2.10;;;21.80;54.70;;;;;;4989812;28;20625;-78
2023/04/10 10:33:39;;;;;;;3.67;3.30;;;21.90;54.10;;;;;;4974165;28;20612;-79
2023/04/10 10:36:07;;;;;;;3.10;2.80;;;21.80;52.60;;;;;;4990346;28;20592;-79
2023/04/10 10:38:34;;;;;;;3.50;2.77;;;21.90;53.30;;;;;;4990880;28;20634;-78
2023/04/10 10:41:09;;;;;;;2.93;2.50;;;22.00;53.80;;;;;;4991197;28;20614;-78
2023/04/10 10:44:05;;;;;;;4.03;2.97;;;21.80;50.20;;;;;;4989921;28;20582;-79
2023/04/10 10:46:50;;;;;;;4.63;2.87;;;21.50;49.90;;;;;;4973392;28;21232;-78
2023/04/10 10:49:16;;;;;;;3.20;2.40;;;21.30;51.40;;;;;;4973089;28;20890;-79
2023/04/10 10:51:46;;;;;;;2.87;2.13;;;21.30;52.30;;;;;;5003573;28;20605;-79
2023/04/10 10:54:34;;;;;;;2.93;2.63;;;21.50;52.90;;;;;;4998039;28;20238;-79
2023/04/10 10:57:01;;;;;;;2.80;2.50;;;21.20;49.80;;;;;;4995162;28;20578;-78
2023/04/10 10:59:56;;;;;;;4.20;3.40;;;21.30;50.40;;;;;;4992780;28;20613;-78
2023/04/10 11:02:22;;;;;;;3.73;3.13;;;21.00;50.20;;;;;;4998080;28;20668;-78
2023/04/10 11:04:48;;;;;;;3.07;2.67;;;21.10;50.10;;;;;;5009739;28;20577;-78
2023/04/10 11:07:15;;;;;;;5.20;2.40;;;21.10;50.60;;;;;;5009290;28;20194;-78
2023/04/10 11:09:48;;;;;;;3.07;2.53;;;21.00;50.00;;;;;;4993249;28;20745;-78
2023/04/10 11:12:15;;;;;;;4.20;2.30;;;20.80;50.50;;;;;;4976977;28;20581;-78
2023/04/10 11:14:42;;;;;;;4.97;2.47;;;20.80;50.70;;;;;;5009556;28;20632;-78
2023/04/10 11:17:09;;;;;;;3.00;2.20;;;20.60;50.40;;;;;;5008838;28;20616;-78
2023/04/10 11:19:58;;;;;;;2.70;2.50;;;20.60;50.70;;;;;;5009579;28;20654;-78
2023/04/10 11:22:24;;;;;;;3.73;3.43;;;20.30;49.80;;;;;;4992537;28;20599;-78
2023/04/10 11:25:01;;;;;;;4.10;3.53;;;20.30;50.20;;;;;;4989767;28;20991;-78
2023/04/10 11:27:44;;;;;;;3.53;3.03;;;20.10;50.50;;;;;;4989583;28;20736;-78
2023/04/10 11:30:30;;;;;;;3.37;3.03;;;19.90;49.90;;;;;;4991240;28;20732;-79
2023/04/10 11:32:57;;;;;;;4.30;3.33;;;19.90;50.20;;;;;;4973357;28;20692;-78
2023/04/10 11:35:23;;;;;;;2.20;1.80;;;19.80;50.60;;;;;;4989474;28;20598;-79
2023/04/10 11:37:48;;;;;;;3.40;2.43;;;19.80;51.10;;;;;;4957296;28;20593;-79
2023/04/10 11:40:15;;;;;;;3.47;2.83;;;19.70;50.90;;;;;;4973482;28;21211;-78
2023/04/10 11:42:41;;;;;;;4.40;2.83;;;19.70;51.10;;;;;;4990589;28;20175;-78
2023/04/10 11:45:24;;;;;;;4.20;2.80;;;19.70;51.80;;;;;;4972947;28;20593;-79
2023/04/10 11:47:54;;;;;;;3.40;2.20;;;19.80;51.60;;;;;;4992498;28;20594;-79
2023/04/10 11:50:20;;;;;;;3.10;2.27;;;19.80;51.90;;;;;;4976519;28;21201;-78
2023/04/10 11:52:48;;;;;;;2.40;1.90;;;19.90;51.70;;;;;;4993154;28;20596;-78
2023/04/10 11:55:15;;;;;;;4.53;2.37;;;19.90;51.20;;;;;;4992283;28;20632;-78
2023/04/10 11:57:41;;;;;;;2.67;1.70;;;19.80;51.30;;;;;;4992923;28;20652;-78
2023/04/10 12:00:07;;;;;;;3.60;2.47;;;19.70;50.60;;;;;;4992553;28;20704;-78
2023/04/10 12:02:33;;;;;;;3.03;2.10;;;19.70;50.90;;;;;;4992919;28;20636;-79
2023/04/10 12:04:59;;;;;;;2.90;2.03;;;19.70;51.10;;;;;;4992615;28;20967;-78
2023/04/10 12:07:28;;;;;;;2.90;2.30;;;19.80;51.60;;;;;;4992431;28;20675;-79
2023/04/10 12:09:57;;;;;;;4.07;1.80;;;19.90;51.30;;;;;;4996308;28;20202;-78
2023/04/10 12:12:35;;;;;;;2.33;1.93;;;19.90;51.30;;;;;;5004857;28;20581;-78
2023/04/10 12:15:02;;;;;;;3.10;2.20;;;20.00;51.50;;;;;;5028678;28;20626;-78
2023/04/10 12:17:28;;;;;;;3.40;2.00;;;20.10;51.60;;;;;;5012054;28;20585;-78
2023/04/10 12:19:54;;;;;;;2.60;1.47;;;20.20;50.90;;;;;;5012146;28;20648;-79
2023/04/10 12:22:20;;;;;;;2.37;1.40;;;20.20;49.70;;;;;;4994529;28;20601;-77
2023/04/10 12:24:48;;;;;;;2.67;1.67;;;20.30;50.40;;;;;;4992381;28;21145;-77
2023/04/10 12:27:24;;;;;;;2.03;1.50;;;20.30;50.40;;;;;;4976455;28;20633;-77
2023/04/10 12:29:52;;;;;;;2.10;1.30;;;20.40;50.80;;;;;;4959679;28;20613;-77
2023/04/10 12:32:18;;;;;;;2.10;1.47;;;20.50;50.20;;;;;;5009137;28;20956;-77
2023/04/10 12:34:52;;;;;;;2.43;1.80;;;20.50;50.00;;;;;;4991921;28;20601;-78
2023/04/10 12:37:18;;;;;;;2.57;1.63;;;20.70;50.40;;;;;;4992456;28;20639;-77
2023/04/10 12:39:44;;;;;;;2.17;1.50;;;20.80;50.60;;;;;;4987651;28;20669;-77
2023/04/10 12:42:19;;;;;;;2.10;1.50;;;20.90;50.30;;;;;;4981096;28;21170;-78
2023/04/10 12:44:57;;;;;;;2.40;1.10;;;21.00;50.00;;;;;;4975595;28;20653;-78
2023/04/10 12:47:25;;;;;;;1.90;1.13;;;21.10;49.90;;;;;;4993482;28;20740;-78
2023/04/10 12:50:11;;;;;;;1.67;1.17;;;21.30;48.60;;;;;;4993558;28;20625;-79
2023/04/10 12:52:39;;;;;;;1.70;1.10;;;21.20;46.70;;;;;;4996563;28;20597;-79
2023/04/10 12:55:16;;;;;;;2.30;1.30;;;21.30;47.70;;;;;;4999826;28;20648;-79
2023/04/10 12:57:43;;;;;;;1.80;1.20;;;21.30;48.60;;;;;;5002122;28;20604;-77
2023/04/10 13:00:11;;;;;;;1.80;1.27;;;21.40;49.20;;;;;;5011315;28;20659;-78
2023/04/10 13:02:38;;;;;;;2.43;1.67;;;21.60;48.20;;;;;;4980924;28;21165;-78
2023/04/10 13:05:05;;;;;;;1.87;1.30;;;21.60;47.70;;;;;;4975396;28;21134;-77
2023/04/10 13:07:34;;;;;;;2.10;1.43;;;21.70;47.30;;;;;;4992624;28;20634;-78
2023/04/10 13:09:59;;;;;;;2.93;1.60;;;21.70;47.20;;;;;;4975882;28;20594;-78
2023/04/10 13:12:26;;;;;;;2.90;1.33;;;21.70;48.10;;;;;;4992074;28;20579;-78
2023/04/10 13:14:55;;;;;;;2.50;1.73;;;21.80;46.80;;;;;;4975784;28;20185;-77
2023/04/10 13:17:22;;;;;;;2.00;1.47;;;21.80;46.00;;;;;;4992898;28;20593;-77
2023/04/10 13:19:47;;;;;;;2.27;1.40;;;21.80;46.70;;;;;;4992932;28;20618;-78
2023/04/10 13:22:13;;;;;;;1.93;1.20;;;21.90;46.70;;;;;;4993501;28;21149;-77